createdAt,value
2018-09-23T00:16:07.197Z,3.90
2018-09-23T00:35:57.826Z,4.17
2018-09-23T00:38:26.458Z,4.57
2018-09-23T00:40:55.000Z,4.57
2018-09-23T00:43:24.019Z,4.43
2018-09-23T00:45:52.990Z,3.97
2018-09-23T00:48:21.417Z,4.27
2018-09-23T00:50:50.489Z,4.43
2018-09-23T00:53:19.166Z,4.70
2018-09-23T01:13:08.246Z,3.83
2018-09-23T01:15:37.170Z,4.20
2018-09-23T01:18:06.573Z,4.00
2018-09-23T01:20:35.341Z,3.83
2018-09-23T01:40:25.033Z,3.70
2018-09-23T01:42:53.489Z,3.60
2018-09-23T01:45:22.652Z,3.60
2018-09-23T01:47:51.767Z,3.70
2018-09-23T01:50:20.517Z,4.10
2018-09-23T01:52:50.130Z,3.60
2018-09-23T01:55:18.770Z,3.53
2018-09-23T01:57:47.273Z,3.53
2018-09-23T02:00:15.741Z,3.30
2018-09-23T02:02:44.394Z,2.87
2018-09-23T02:05:14.577Z,3.67
2018-09-23T02:07:43.632Z,3.00
2018-09-23T02:10:13.259Z,4.13
2018-09-23T02:12:42.257Z,4.03
2018-09-23T02:15:10.729Z,3.47
2018-09-23T02:17:39.632Z,3.60
2018-09-23T02:20:08.091Z,3.70
2018-09-23T02:22:36.546Z,3.33
2018-09-23T02:25:05.211Z,3.60
2018-09-23T02:27:33.709Z,3.17
2018-09-23T02:30:02.135Z,3.20
2018-09-23T02:32:30.689Z,3.13
2018-09-23T02:34:59.107Z,2.67
2018-09-23T02:37:27.597Z,2.40
2018-09-23T02:39:56.319Z,2.50
2018-09-23T02:42:25.366Z,2.27
2018-09-23T02:44:54.624Z,2.20
2018-09-23T02:47:23.236Z,2.40
2018-09-23T02:49:51.898Z,2.20
2018-09-23T02:52:20.362Z,1.90
2018-09-23T02:54:48.990Z,2.33
2018-09-23T02:57:18.334Z,2.00
2018-09-23T03:17:12.186Z,1.90
2018-09-23T03:19:40.622Z,2.00
2018-09-23T03:22:09.694Z,2.07
2018-09-23T03:24:38.865Z,2.70
2018-09-23T03:27:07.342Z,2.17
2018-09-23T03:29:35.829Z,2.47
2018-09-23T03:32:06.138Z,2.00
2018-09-23T03:34:34.669Z,1.83
2018-09-23T03:37:03.127Z,2.23
2018-09-23T03:39:32.988Z,2.33
2018-09-23T03:42:01.412Z,2.20
2018-09-23T03:44:29.993Z,2.60
2018-09-23T03:46:58.717Z,2.40
2018-09-23T03:49:27.298Z,2.60
2018-09-23T03:51:56.142Z,2.40
2018-09-23T03:54:25.694Z,2.60
2018-09-23T03:56:54.122Z,2.23
2018-09-23T03:59:23.172Z,2.17
2018-09-23T04:19:14.590Z,2.37
2018-09-23T04:39:06.302Z,2.13
2018-09-23T04:41:35.747Z,2.10
2018-09-23T04:44:04.349Z,2.17
2018-09-23T04:46:32.855Z,1.93
2018-09-23T04:49:01.766Z,1.90
2018-09-23T04:51:30.302Z,1.80
2018-09-23T04:53:58.736Z,1.80
2018-09-23T05:13:47.589Z,1.30
2018-09-23T05:16:15.984Z,1.33
2018-09-23T05:18:44.437Z,1.43
2018-09-23T05:21:14.155Z,1.50
2018-09-23T05:23:42.531Z,1.40
2018-09-23T05:26:12.365Z,1.30
2018-09-23T05:28:42.004Z,1.50
2018-09-23T05:31:11.146Z,1.27
2018-09-23T05:33:39.654Z,1.40
2018-09-23T05:36:09.824Z,1.40
2018-09-23T05:38:38.437Z,1.20
2018-09-23T05:41:07.841Z,1.57
2018-09-23T05:43:36.505Z,1.73
2018-09-23T05:46:05.012Z,1.23
2018-09-23T06:05:54.835Z,1.30
2018-09-23T06:08:23.296Z,1.30
2018-09-23T06:10:52.429Z,1.17
2018-09-23T06:13:22.165Z,1.20
2018-09-23T06:15:51.624Z,1.20
2018-09-23T06:18:20.867Z,1.40
2018-09-23T06:20:50.045Z,1.10
2018-09-23T06:23:18.572Z,1.20
2018-09-23T06:25:47.022Z,1.30
2018-09-23T06:28:17.242Z,1.00
2018-09-23T06:30:45.786Z,1.17
2018-09-23T06:33:14.263Z,1.37
2018-09-23T06:35:43.542Z,1.47
2018-09-23T06:38:12.565Z,1.40
2018-09-23T06:40:41.807Z,1.20
2018-09-23T06:43:10.820Z,1.00
2018-09-23T06:45:39.973Z,1.43
2018-09-23T06:48:09.293Z,1.23
2018-09-23T06:50:38.490Z,1.10
2018-09-23T07:10:28.166Z,1.10
2018-09-23T07:12:56.801Z,1.10
2018-09-23T07:32:46.667Z,1.40
2018-09-23T07:35:15.583Z,1.30
2018-09-23T07:37:44.663Z,1.30
2018-09-23T07:40:13.205Z,1.00
2018-09-23T08:00:03.607Z,1.10
2018-09-23T08:02:32.113Z,1.17
2018-09-23T08:05:00.639Z,1.23
2018-09-23T08:07:29.239Z,1.10
2018-09-23T08:09:58.567Z,1.30
2018-09-23T08:29:47.874Z,1.10
2018-09-23T08:32:17.246Z,0.90
2018-09-23T08:52:06.869Z,1.00
2018-09-23T08:54:36.210Z,1.00
2018-09-23T08:57:05.876Z,1.10
2018-09-23T08:59:34.622Z,1.20
2018-09-23T09:02:04.441Z,1.10
2018-09-23T09:04:32.917Z,1.00
2018-09-23T09:07:02.239Z,1.07
2018-09-23T09:09:30.713Z,1.10
2018-09-23T09:11:59.262Z,1.20
2018-09-23T09:14:30.326Z,1.00
2018-09-23T09:16:58.799Z,1.20
2018-09-23T09:19:27.308Z,1.10
2018-09-23T09:21:56.041Z,1.00
2018-09-23T09:24:24.462Z,0.90
2018-09-23T09:26:53.061Z,1.10
2018-09-23T09:29:21.484Z,0.83
2018-09-23T09:31:50.803Z,0.90
2018-09-23T09:34:19.295Z,1.00
2018-09-23T09:36:47.877Z,1.00
2018-09-23T09:56:37.165Z,1.00
2018-09-23T09:59:07.342Z,0.80
2018-09-23T10:01:35.932Z,0.87
2018-09-23T10:04:04.608Z,0.77
2018-09-23T10:06:34.122Z,0.73
2018-09-23T10:09:02.750Z,0.93
2018-09-23T10:11:32.491Z,1.00
2018-09-23T10:14:01.475Z,1.00
2018-09-23T10:33:51.931Z,0.90
2018-09-23T10:36:20.408Z,0.70
2018-09-23T10:38:49.661Z,1.07
2018-09-23T10:41:18.276Z,0.80
2018-09-23T10:43:47.888Z,0.80
2018-09-23T10:46:16.306Z,1.00
2018-09-23T10:48:46.294Z,1.00
2018-09-23T10:51:14.913Z,0.90
2018-09-23T10:53:43.368Z,0.80
2018-09-23T10:56:12.091Z,0.80
2018-09-23T10:58:41.019Z,1.00
2018-09-23T11:01:09.560Z,1.00
2018-09-23T11:03:38.182Z,1.07
2018-09-23T11:06:06.883Z,0.70
2018-09-23T11:08:35.343Z,0.80
2018-09-23T11:11:03.845Z,0.97
2018-09-23T11:13:32.579Z,0.77
2018-09-23T11:16:02.440Z,1.03
2018-09-23T11:18:30.906Z,0.80
2018-09-23T11:20:59.644Z,0.90
2018-09-23T11:23:28.289Z,1.00
2018-09-23T11:25:56.791Z,1.03
2018-09-23T11:28:25.409Z,0.87
2018-09-23T11:30:53.877Z,0.90
2018-09-23T11:33:22.377Z,0.90
2018-09-23T11:35:51.025Z,0.80
2018-09-23T11:38:20.149Z,0.80
2018-09-23T11:40:48.629Z,1.00
2018-09-23T11:43:17.463Z,0.90
2018-09-23T12:03:07.594Z,0.80
2018-09-23T12:05:36.391Z,0.70
2018-09-23T12:08:05.321Z,0.90
2018-09-23T12:10:33.772Z,1.20
2018-09-23T12:13:02.347Z,0.67
2018-09-23T12:32:52.385Z,1.00
2018-09-23T12:35:21.006Z,0.70
2018-09-23T12:37:49.606Z,0.90
2018-09-23T12:40:18.139Z,0.93
2018-09-23T13:00:07.638Z,0.70
2018-09-23T13:19:57.206Z,0.70
2018-09-23T13:22:25.832Z,0.70
2018-09-23T13:24:54.274Z,0.60
2018-09-23T13:27:22.728Z,0.60
2018-09-23T13:29:52.242Z,0.63
2018-09-23T13:32:20.771Z,0.80
2018-09-23T13:34:49.766Z,0.70
2018-09-23T13:37:18.286Z,0.53
2018-09-23T13:39:46.780Z,0.70
2018-09-23T13:59:35.826Z,0.80
2018-09-23T14:02:04.418Z,0.60
2018-09-23T14:21:54.906Z,0.57
2018-09-23T14:24:25.379Z,0.80
2018-09-23T14:26:54.809Z,0.60
2018-09-23T14:29:24.195Z,0.70
2018-09-23T14:49:13.330Z,0.70
2018-09-23T15:09:04.231Z,0.80
2018-09-23T15:11:32.713Z,0.80
2018-09-23T15:31:29.164Z,0.60
2018-09-23T15:33:58.010Z,0.77
2018-09-23T15:36:26.598Z,0.60
2018-09-23T15:38:55.254Z,0.50
2018-09-23T15:41:24.449Z,0.53
2018-09-23T15:43:52.986Z,0.50
2018-09-23T16:03:44.081Z,0.70
2018-09-23T16:06:12.801Z,0.70
2018-09-23T16:08:41.326Z,0.80
2018-09-23T16:11:10.298Z,0.90
2018-09-23T16:13:38.816Z,0.43
2018-09-23T16:16:08.059Z,0.80
2018-09-23T16:18:38.162Z,0.90
2018-09-23T16:21:07.047Z,0.73
2018-09-23T16:23:35.488Z,0.60
2018-09-23T16:26:04.579Z,0.67
2018-09-23T16:28:33.201Z,0.70
2018-09-23T16:48:22.764Z,0.83
2018-09-23T16:50:51.173Z,0.87
2018-09-23T16:53:19.612Z,0.87
2018-09-23T16:55:48.313Z,0.80
2018-09-23T16:58:16.838Z,0.80
2018-09-23T17:00:45.377Z,0.90
2018-09-23T17:20:35.765Z,0.73
2018-09-23T17:40:25.542Z,0.73
2018-09-23T18:00:16.337Z,0.60
2018-09-23T18:20:05.905Z,0.73
2018-09-23T18:22:35.322Z,0.80
2018-09-23T18:25:04.869Z,1.00
2018-09-23T18:27:33.302Z,1.10
2018-09-23T18:30:02.206Z,0.60
2018-09-23T18:49:53.241Z,1.00
2018-09-23T18:52:23.502Z,0.90
2018-09-23T18:54:57.333Z,0.80
2018-09-23T18:57:26.648Z,0.90
2018-09-23T18:59:56.230Z,1.00
2018-09-23T19:02:25.355Z,0.73
2018-09-23T19:04:54.258Z,1.20
2018-09-23T19:07:23.490Z,0.87
2018-09-23T19:27:13.353Z,1.73
2018-09-23T19:47:05.053Z,1.53
2018-09-23T20:06:54.220Z,0.93
2018-09-23T20:09:22.659Z,0.63
2018-09-23T20:11:51.239Z,1.10
2018-09-23T20:14:19.998Z,1.00
2018-09-23T20:16:48.404Z,1.00
2018-09-23T20:19:16.918Z,0.80
2018-09-23T20:39:07.795Z,1.00
2018-09-23T20:58:58.130Z,0.70
2018-09-23T21:01:26.647Z,0.87
2018-09-23T21:03:55.161Z,0.70
2018-09-23T21:06:24.445Z,0.63
2018-09-23T21:08:53.049Z,0.90
2018-09-23T21:11:21.572Z,0.80
2018-09-23T21:13:51.478Z,0.70
2018-09-23T21:16:20.069Z,0.83
2018-09-23T21:18:48.612Z,0.70
2018-09-23T21:21:17.034Z,0.90
2018-09-23T21:23:45.565Z,1.00
2018-09-23T21:26:14.045Z,0.80
2018-09-23T21:28:42.436Z,0.67
2018-09-23T21:31:10.926Z,0.80
2018-09-23T21:51:02.720Z,0.90
2018-09-23T21:53:32.221Z,1.33
2018-09-23T21:56:03.004Z,0.90
2018-09-23T21:58:33.625Z,0.93
2018-09-23T22:01:03.549Z,0.83
2018-09-23T22:03:33.827Z,0.80
2018-09-23T22:06:02.734Z,0.90
2018-09-23T22:08:31.234Z,0.80
2018-09-23T22:10:59.753Z,0.80
2018-09-23T22:13:28.291Z,0.93
2018-09-23T22:15:56.708Z,1.10
2018-09-23T22:18:25.209Z,1.10
2018-09-23T22:20:53.793Z,0.90
2018-09-23T22:40:43.363Z,1.30
2018-09-23T22:43:12.057Z,1.20
2018-09-23T22:45:40.594Z,1.10
2018-09-23T22:48:09.247Z,1.00
2018-09-23T22:50:37.960Z,1.10
2018-09-23T23:10:27.804Z,1.20
2018-09-23T23:12:56.501Z,1.30
2018-09-23T23:15:26.322Z,1.40
2018-09-23T23:17:54.886Z,1.40
2018-09-23T23:20:24.418Z,1.50
2018-09-23T23:22:53.021Z,1.50
2018-09-23T23:25:22.123Z,1.50
2018-09-23T23:27:51.410Z,1.60
2018-09-23T23:30:19.946Z,1.57
2018-09-23T23:32:48.470Z,1.40
2018-09-23T23:35:17.245Z,1.40
2018-09-23T23:37:45.943Z,1.33
2018-09-23T23:40:15.177Z,1.40
2018-09-23T23:42:44.426Z,1.43
2018-09-23T23:45:12.938Z,1.27
2018-09-23T23:47:41.402Z,1.10
2018-09-23T23:50:10.648Z,1.30
2018-09-23T23:52:39.720Z,1.27
2018-09-23T23:55:08.160Z,1.20
2018-09-23T23:57:37.721Z,1.20
